Time,TemperatureF,DewpointF,PressureIn,WindDirection,WindDirectionDegrees,WindSpeedMPH,WindSpeedGustMPH,Humidity,HourlyPrecipIn,Conditions,Clouds,dailyrainin,SolarRadiationWatts/m^2,SoftwareType,DateUTC
2013-08-22 00:02:00,71.7,60.0,30.01,West,265,9.0,18.0,67,0.00,,,0.00,0,weatherlink.com 1.10,2013-08-22 04:02:00,
2013-08-22 00:17:00,71.7,60.0,30.02,West,265,15.0,21.0,67,0.00,,,0.00,0,weatherlink.com 1.10,2013-08-22 04:17:00,
2013-08-22 00:32:00,70.9,60.0,30.02,WSW,252,13.0,16.0,69,0.00,,,0.00,0,weatherlink.com 1.10,2013-08-22 04:32:00,
2013-08-22 00:47:00,70.4,61.0,30.02,West,261,12.0,18.0,71,0.00,,,0.00,0,weatherlink.com 1.10,2013-08-22 04:47:00,
2013-08-22 01:02:00,70.0,61.0,30.02,WSW,255,14.0,19.0,72,0.00,,,0.00,0,weatherlink.com 1.10,2013-08-22 05:02:00,
2013-08-22 01:17:00,69.7,60.0,30.02,WSW,252,14.0,19.0,72,0.00,,,0.00,0,weatherlink.com 1.10,2013-08-22 05:17:00,
2013-08-22 01:32:00,69.5,61.0,30.02,WSW,250,10.0,16.0,73,0.00,,,0.00,0,weatherlink.com 1.10,2013-08-22 05:32:00,
2013-08-22 01:47:00,69.1,61.0,30.01,WSW,256,14.0,16.0,74,0.00,,,0.00,0,weatherlink.com 1.10,2013-08-22 05:47:00,
2013-08-22 02:02:00,69.1,61.0,30.02,WSW,250,12.0,17.0,74,0.00,,,0.00,0,weatherlink.com 1.10,2013-08-22 06:02:00,
2013-08-22 02:17:00,69.2,61.0,30.02,WSW,253,7.0,20.0,74,0.00,,,0.00,0,weatherlink.com 1.10,2013-08-22 06:17:00,
2013-08-22 02:32:00,69.2,61.0,30.01,WSW,252,13.0,16.0,74,0.00,,,0.00,0,weatherlink.com 1.10,2013-08-22 06:32:00,
2013-08-22 02:47:00,69.2,61.0,30.01,West,276,6.0,22.0,74,0.00,,,0.00,0,weatherlink.com 1.10,2013-08-22 06:47:00,
2013-08-22 03:02:00,69.4,61.0,30.01,WSW,244,12.0,21.0,74,0.00,,,0.00,0,weatherlink.com 1.10,2013-08-22 07:02:00,
2013-08-22 03:17:00,69.4,61.0,30.01,WSW,257,10.0,18.0,74,0.00,,,0.00,0,weatherlink.com 1.10,2013-08-22 07:17:00,
2013-08-22 03:32:00,69.7,61.0,30.00,WSW,248,10.0,21.0,75,0.00,,,0.00,0,weatherlink.com 1.10,2013-08-22 07:32:00,
2013-08-22 03:47:00,69.5,61.0,30.00,WSW,241,7.0,17.0,75,0.00,,,0.00,0,weatherlink.com 1.10,2013-08-22 07:47:00,
2013-08-22 04:02:00,69.7,61.0,30.00,West,263,8.0,18.0,75,0.00,,,0.00,0,weatherlink.com 1.10,2013-08-22 08:02:00,
2013-08-22 04:17:00,69.7,61.0,30.00,WSW,248,9.0,17.0,75,0.00,,,0.00,0,weatherlink.com 1.10,2013-08-22 08:17:00,
2013-08-22 04:32:00,69.3,61.0,29.99,West,264,11.0,15.0,76,0.00,,,0.00,0,weatherlink.com 1.10,2013-08-22 08:32:00,
2013-08-22 04:47:00,69.0,62.0,29.99,WSW,248,9.0,15.0,77,0.00,,,0.00,0,weatherlink.com 1.10,2013-08-22 08:47:00,
2013-08-22 05:02:00,69.0,62.0,29.98,West,271,7.0,17.0,77,0.00,,,0.00,0,weatherlink.com 1.10,2013-08-22 09:02:00,
2013-08-22 05:17:00,69.1,61.0,29.98,West,265,13.0,15.0,76,0.00,,,0.00,0,weatherlink.com 1.10,2013-08-22 09:17:00,
2013-08-22 05:32:00,68.6,62.0,29.97,West,266,7.0,12.0,78,0.00,,,0.00,0,weatherlink.com 1.10,2013-08-22 09:32:00,
2013-08-22 05:47:00,68.5,61.0,29.97,West,259,9.0,12.0,78,0.00,,,0.00,0,weatherlink.com 1.10,2013-08-22 09:47:00,
2013-08-22 06:02:00,68.4,61.0,29.97,West,260,7.0,12.0,78,0.00,,,0.00,7,weatherlink.com 1.10,2013-08-22 10:02:00,
2013-08-22 06:17:00,68.3,61.0,29.97,West,263,9.0,11.0,78,0.00,,,0.00,14,weatherlink.com 1.10,2013-08-22 10:17:00,
2013-08-22 06:32:00,67.7,61.0,29.97,WSW,250,8.0,10.0,80,0.00,,,0.00,35,weatherlink.com 1.10,2013-08-22 10:32:00,
2013-08-22 06:47:00,67.5,62.0,29.97,WSW,254,8.0,12.0,82,0.00,,,0.00,54,weatherlink.com 1.10,2013-08-22 10:47:00,
2013-08-22 08:33:00,70.3,62.0,29.98,West,275,10.0,12.0,76,0.00,,,0.00,320,weatherlink.com 1.10,2013-08-22 12:33:00,
2013-08-22 08:48:00,70.4,62.0,29.97,West,271,7.0,11.0,75,0.00,,,0.00,436,weatherlink.com 1.10,2013-08-22 12:48:00,
2013-08-22 09:03:00,70.7,61.0,29.97,West,281,8.0,15.0,72,0.00,,,0.00,364,weatherlink.com 1.10,2013-08-22 13:03:00,
2013-08-22 09:18:00,70.7,62.0,29.98,West,264,8.0,13.0,74,0.00,,,0.00,459,weatherlink.com 1.10,2013-08-22 13:18:00,
2013-08-22 09:33:00,71.9,63.0,29.98,West,259,2.0,11.0,74,0.00,,,0.00,531,weatherlink.com 1.10,2013-08-22 13:33:00,
2013-08-22 09:48:00,72.2,63.0,29.98,WSW,246,6.0,10.0,73,0.00,,,0.00,592,weatherlink.com 1.10,2013-08-22 13:48:00,
2013-08-22 10:03:00,72.5,63.0,29.97,WSW,257,6.0,12.0,71,0.00,,,0.00,617,weatherlink.com 1.10,2013-08-22 14:03:00,
2013-08-22 10:18:00,73.8,63.0,29.97,West,269,1.0,10.0,68,0.00,,,0.00,657,weatherlink.com 1.10,2013-08-22 14:18:00,
2013-08-22 10:33:00,74.7,63.0,29.97,WSW,244,5.0,11.0,68,0.00,,,0.00,698,weatherlink.com 1.10,2013-08-22 14:33:00,
2013-08-22 10:48:00,75.0,64.0,29.97,West,265,5.0,11.0,68,0.00,,,0.00,677,weatherlink.com 1.10,2013-08-22 14:48:00,
2013-08-22 11:03:00,75.6,63.0,29.96,West,270,9.0,13.0,66,0.00,,,0.00,756,weatherlink.com 1.10,2013-08-22 15:03:00,
2013-08-22 11:18:00,76.5,64.0,29.96,West,263,9.0,16.0,65,0.00,,,0.00,773,weatherlink.com 1.10,2013-08-22 15:18:00,
2013-08-22 11:33:00,77.0,65.0,29.95,West,261,7.0,15.0,66,0.00,,,0.00,788,weatherlink.com 1.10,2013-08-22 15:33:00,
2013-08-22 11:48:00,77.1,65.0,29.94,SW,234,12.0,15.0,67,0.00,,,0.00,809,weatherlink.com 1.10,2013-08-22 15:48:00,
2013-08-22 12:04:00,77.7,65.0,29.94,SW,234,11.0,18.0,64,0.00,,,0.00,821,weatherlink.com 1.10,2013-08-22 16:04:00,
2013-08-22 12:19:00,78.2,65.0,29.94,West,269,6.0,17.0,64,0.00,,,0.00,824,weatherlink.com 1.10,2013-08-22 16:19:00,
2013-08-22 12:33:00,78.3,65.0,29.93,West,267,12.0,18.0,63,0.00,,,0.00,831,weatherlink.com 1.10,2013-08-22 16:33:00,
2013-08-22 12:48:00,79.1,65.0,29.93,West,265,13.0,20.0,63,0.00,,,0.00,833,weatherlink.com 1.10,2013-08-22 16:48:00,
2013-08-22 13:03:00,79.5,65.0,29.92,WSW,257,5.0,15.0,61,0.00,,,0.00,795,weatherlink.com 1.10,2013-08-22 17:03:00,
2013-08-22 13:18:00,79.4,63.0,29.92,WSW,238,13.0,22.0,58,0.00,,,0.00,374,weatherlink.com 1.10,2013-08-22 17:18:00,
2013-08-22 13:33:00,80.2,63.0,29.91,WSW,253,12.0,23.0,57,0.00,,,0.00,174,weatherlink.com 1.10,2013-08-22 17:33:00,
2013-08-22 13:48:00,80.1,61.0,29.90,SW,236,13.0,19.0,52,0.00,,,0.00,844,weatherlink.com 1.10,2013-08-22 17:48:00,
2013-08-22 14:03:00,81.1,62.0,29.89,WSW,246,16.0,18.0,53,0.00,,,0.00,807,weatherlink.com 1.10,2013-08-22 18:03:00,
2013-08-22 14:18:00,80.6,62.0,29.89,West,269,9.0,16.0,54,0.00,,,0.00,322,weatherlink.com 1.10,2013-08-22 18:18:00,
2013-08-22 14:33:00,79.0,61.0,29.87,West,261,8.0,18.0,55,0.00,,,0.00,360,weatherlink.com 1.10,2013-08-22 18:33:00,
2013-08-22 14:48:00,79.9,62.0,29.87,West,264,5.0,15.0,55,0.00,,,0.00,761,weatherlink.com 1.10,2013-08-22 18:48:00,
2013-08-22 15:03:00,81.0,62.0,29.87,WSW,239,7.0,16.0,53,0.00,,,0.00,715,weatherlink.com 1.10,2013-08-22 19:03:00,
2013-08-22 15:18:00,81.4,63.0,29.86,West,259,7.0,16.0,53,0.00,,,0.00,594,weatherlink.com 1.10,2013-08-22 19:18:00,
2013-08-22 15:33:00,81.2,61.0,29.86,SW,214,15.0,21.0,51,0.00,,,0.00,638,weatherlink.com 1.10,2013-08-22 19:33:00,
2013-08-22 15:48:00,81.1,61.0,29.86,WSW,254,9.0,19.0,50,0.00,,,0.00,575,weatherlink.com 1.10,2013-08-22 19:48:00,
2013-08-22 16:04:00,80.9,62.0,29.86,WSW,237,7.0,17.0,52,0.00,,,0.00,512,weatherlink.com 1.10,2013-08-22 20:04:00,
2013-08-22 16:19:00,80.5,62.0,29.85,WSW,241,11.0,15.0,54,0.00,,,0.00,446,weatherlink.com 1.10,2013-08-22 20:19:00,
2013-08-22 16:34:00,80.5,63.0,29.84,West,261,5.0,16.0,55,0.00,,,0.00,415,weatherlink.com 1.10,2013-08-22 20:34:00,
2013-08-22 16:49:00,80.3,62.0,29.84,WSW,244,7.0,15.0,54,0.00,,,0.00,387,weatherlink.com 1.10,2013-08-22 20:49:00,
2013-08-22 17:04:00,80.3,63.0,29.83,WNW,284,11.0,15.0,55,0.00,,,0.00,448,weatherlink.com 1.10,2013-08-22 21:04:00,
2013-08-22 17:19:00,80.7,64.0,29.83,WSW,252,6.0,11.0,57,0.00,,,0.00,322,weatherlink.com 1.10,2013-08-22 21:19:00,
2013-08-22 17:34:00,79.5,64.0,29.82,West,269,7.0,13.0,59,0.00,,,0.00,227,weatherlink.com 1.10,2013-08-22 21:34:00,
2013-08-22 17:49:00,79.1,65.0,29.82,WSW,252,8.0,12.0,62,0.00,,,0.00,230,weatherlink.com 1.10,2013-08-22 21:49:00,
2013-08-22 18:04:00,78.5,65.0,29.82,WSW,254,4.0,9.0,63,0.00,,,0.00,172,weatherlink.com 1.10,2013-08-22 22:04:00,
2013-08-22 18:19:00,78.5,65.0,29.83,West,263,8.0,14.0,63,0.00,,,0.00,178,weatherlink.com 1.10,2013-08-22 22:19:00,
2013-08-22 18:34:00,78.0,65.0,29.82,WSW,254,7.0,11.0,65,0.00,,,0.00,130,weatherlink.com 1.10,2013-08-22 22:34:00,
2013-08-22 18:49:00,77.1,65.0,29.82,SW,221,7.0,13.0,66,0.00,,,0.00,74,weatherlink.com 1.10,2013-08-22 22:49:00,
2013-08-22 19:04:00,76.7,64.0,29.81,WSW,255,12.0,16.0,65,0.00,,,0.00,35,weatherlink.com 1.10,2013-08-22 23:04:00,
2013-08-22 19:19:00,76.0,63.0,29.81,West,261,16.0,17.0,64,0.00,,,0.00,19,weatherlink.com 1.10,2013-08-22 23:19:00,
2013-08-22 19:34:00,75.9,62.0,29.82,WSW,257,14.0,18.0,63,0.00,,,0.00,5,weatherlink.com 1.10,2013-08-22 23:34:00,
2013-08-22 19:49:00,75.6,62.0,29.81,WSW,257,15.0,19.0,62,0.00,,,0.00,0,weatherlink.com 1.10,2013-08-22 23:49:00,
2013-08-22 20:04:00,75.5,61.0,29.81,SW,236,15.0,21.0,61,0.00,,,0.00,0,weatherlink.com 1.10,2013-08-23 00:04:00,
2013-08-22 20:19:00,76.0,61.0,29.81,West,272,13.0,22.0,61,0.00,,,0.00,0,weatherlink.com 1.10,2013-08-23 00:19:00,
2013-08-22 20:34:00,75.4,61.0,29.82,WSW,247,10.0,23.0,62,0.00,,,0.00,0,weatherlink.com 1.10,2013-08-23 00:34:00,
2013-08-22 20:49:00,75.1,62.0,29.82,WSW,242,9.0,23.0,64,0.00,,,0.00,0,weatherlink.com 1.10,2013-08-23 00:49:00,
2013-08-22 21:04:00,74.0,63.0,29.82,West,279,9.0,25.0,68,0.00,,,0.00,0,weatherlink.com 1.10,2013-08-23 01:04:00,
2013-08-22 21:19:00,71.8,64.0,29.81,WSW,238,21.0,27.0,75,0.00,,,0.00,0,weatherlink.com 1.10,2013-08-23 01:19:00,
2013-08-22 21:34:00,70.6,64.0,29.81,WSW,254,11.0,21.0,79,0.00,,,0.00,0,weatherlink.com 1.10,2013-08-23 01:34:00,
2013-08-22 21:49:00,70.0,63.0,29.81,West,275,9.0,22.0,79,0.00,,,0.00,0,weatherlink.com 1.10,2013-08-23 01:49:00,
2013-08-22 22:04:00,70.9,63.0,29.81,West,266,16.0,25.0,76,0.00,,,0.00,0,weatherlink.com 1.10,2013-08-23 02:04:00,
2013-08-22 22:19:00,69.6,64.0,29.81,West,266,15.0,27.0,81,0.00,,,0.00,0,weatherlink.com 1.10,2013-08-23 02:19:00,
2013-08-22 22:34:00,69.0,63.0,29.81,West,277,17.0,23.0,82,0.00,,,0.00,0,weatherlink.com 1.10,2013-08-23 02:34:00,
2013-08-22 22:49:00,69.1,63.0,29.81,West,272,10.0,19.0,82,0.00,,,0.00,0,weatherlink.com 1.10,2013-08-23 02:49:00,
2013-08-22 23:04:00,68.9,64.0,29.82,West,265,16.0,25.0,83,0.00,,,0.00,0,weatherlink.com 1.10,2013-08-23 03:04:00,
2013-08-22 23:19:00,68.8,64.0,29.82,West,267,17.0,19.0,83,0.00,,,0.00,0,weatherlink.com 1.10,2013-08-23 03:19:00,
2013-08-22 23:34:00,68.1,64.0,29.82,West,271,10.0,19.0,85,0.00,,,0.00,0,weatherlink.com 1.10,2013-08-23 03:34:00,
2013-08-22 23:49:00,67.9,63.0,29.82,West,271,13.0,20.0,85,0.00,,,0.00,0,weatherlink.com 1.10,2013-08-23 03:49:00,